Avery, Idaho
Current Conditions -  °F | °C
As of 2:53 PM on Saturday 20 Dec 2014 (Local Time) from KMLP Reporting Station
Light Snow Light Snow  
Wind Chill: -4°   Ceiling: 200
Heat Index: -1°   Visibility: 0.25mi
Dew Point: -3°   Wind: 5mph
Humidity: 88%   Direction: NA
Pressure: 29.69"   Gusts: NA
Location:  47.25°N, 115.81°W
Report Text: KMLP 202253Z AUTO VRB04KT 1/4SM -SN FZFG VV002 M01/M03 A2969 RMK AO2 SLP079 P0002 T10111028
Loading
Personal Weather Stations






























Interactive Weather Map New forecast layout! Learn more

10-Day Weather Forecast

Advertisements
Track Severe Weather on mobile